Airfield :
LOGIN :

Register | Disclaimer

   EN    FR    IT 

 










Legend :    VFR   Marginal VFR   IFR   Intensive IFR   Very Intensive IFR
Visi :
Ceiling :
>= 8 km
>= 3000ft
5 to 8 km
1000 to 3000 ft
1500m to 5 km
500 to 1000 ft
800 to 1500m
200 to 500 ft
< 800m
< 200 ft
Symbols :   Thunderstorms  Fog  Heavy snow  Heavy precipitations  Wind > 20 kt
SIGMETs :     Misc.  Thunderstorms  Icing  Turbulence  Mountain Waves  Volcanic Ashes






- Airport Elevation : 53 ft
- IATA code : LBC


EDHL - Lübeck

CURRENT METAR :
  • 041220Z VRB06G17KT 9999 SCT042 23/10 Q1018

EXPIRED METARs :
  • 041150Z VRB08KT 9999 SCT040 21/11 Q1018
  • 041120Z VRB08KT 9999 SCT042 20/10 Q1018
  • 041050Z 27006KT 230V320 9999 SCT040 20/11 Q1018
  • 041020Z VRB08KT 9999 SCT034 21/11 Q1018
  • 040950Z VRB07KT 9999 SCT033 21/12 Q1018

TAF TAF EDHL
Valid from the 04 at 12:00 until the 04 at 21:00 UTC


041100Z 0412/0421 27010KT 9999 SCT040
PROB30
TEMPO 0414/0417 SHRA SCT040TCU
BECMG 0418/0420 27004KT



MET'MAP, your aeronautical weather chart ! - Copyright ORBIFLY December 2007 - Disclaimer

ORBIFLY MET'MAP TEAM :

Programming & Development : Alexandra Zaïnal
Original concept : Baudouin d'Aumeries
Technical & hardware support : Manuel Goepfert
Assistance : Marc-Olivier Méhu




SOURCES & CREDITS :

   NOAA